createdAt,value
2022-09-28T00:01:12.802Z,16.50
2022-09-28T00:06:19.873Z,15.20
2022-09-28T00:11:28.393Z,16.00
2022-09-28T00:16:38.324Z,16.30
2022-09-28T00:21:41.951Z,16.20
2022-09-28T00:26:56.448Z,16.20
2022-09-28T00:32:03.110Z,15.50
2022-09-28T00:37:08.932Z,15.80
2022-09-28T00:42:19.043Z,16.00
2022-09-28T00:47:33.118Z,15.30
2022-09-28T00:52:41.391Z,15.60
2022-09-28T00:57:53.176Z,15.10
2022-09-28T01:02:56.340Z,15.10
2022-09-28T01:07:58.992Z,14.90
2022-09-28T01:13:01.734Z,15.70
2022-09-28T01:18:17.744Z,15.70
2022-09-28T01:23:58.316Z,9.50
2022-09-28T01:29:42.077Z,7.60
2022-09-28T01:35:20.018Z,6.90
2022-09-28T01:40:26.085Z,6.80
2022-09-28T01:45:57.881Z,5.30
2022-09-28T01:51:05.337Z,5.40
2022-09-28T01:56:16.961Z,4.70
2022-09-28T02:01:43.759Z,4.40
2022-09-28T02:06:56.836Z,4.30
2022-09-28T02:12:05.771Z,4.20
2022-09-28T02:17:10.276Z,4.80
2022-09-28T02:22:23.568Z,5.60
2022-09-28T02:27:36.473Z,4.00
2022-09-28T02:32:45.179Z,2.00
2022-09-28T02:37:49.860Z,1.80
2022-09-28T02:43:22.369Z,1.80
2022-09-28T02:48:41.553Z,1.80
2022-09-28T02:54:01.534Z,1.70
2022-09-28T02:59:20.425Z,1.70
2022-09-28T03:04:35.799Z,1.70
2022-09-28T03:10:01.898Z,1.70
2022-09-28T03:15:12.930Z,1.40
2022-09-28T03:20:15.941Z,1.40
2022-09-28T03:25:18.782Z,1.40
2022-09-28T03:30:22.561Z,1.30
2022-09-28T03:35:25.324Z,1.30
2022-09-28T03:40:28.010Z,1.50
2022-09-28T03:45:30.721Z,1.70
2022-09-28T03:50:33.441Z,1.70
2022-09-28T03:55:36.135Z,1.80
2022-09-28T04:00:39.185Z,1.90
2022-09-28T04:05:52.330Z,1.80
2022-09-28T04:10:59.204Z,1.70
2022-09-28T04:16:02.408Z,2.20
2022-09-28T04:21:07.835Z,1.80
2022-09-28T04:26:18.151Z,1.60
2022-09-28T04:31:23.786Z,1.80
2022-09-28T04:36:26.486Z,2.00
2022-09-28T04:41:29.691Z,1.70
2022-09-28T04:46:32.345Z,2.20
2022-09-28T04:51:35.033Z,2.10
2022-09-28T04:56:37.708Z,2.50
2022-09-28T05:01:40.513Z,2.70
2022-09-28T05:06:43.224Z,2.50
2022-09-28T05:11:45.935Z,3.20
2022-09-28T05:16:54.967Z,3.70
2022-09-28T05:22:04.111Z,3.50
2022-09-28T05:27:06.884Z,3.60
2022-09-28T05:32:09.797Z,4.10
2022-09-28T05:37:12.478Z,3.60
2022-09-28T05:42:15.183Z,4.00
2022-09-28T05:47:17.864Z,3.80
2022-09-28T05:52:20.558Z,4.00
2022-09-28T05:57:23.251Z,4.20
2022-09-28T06:02:26.381Z,4.00
2022-09-28T06:07:29.099Z,3.50
2022-09-28T06:12:34.142Z,3.50
2022-09-28T06:17:46.255Z,3.80
2022-09-28T06:23:01.015Z,4.00
2022-09-28T06:34:30.560Z,4.40
2022-09-28T06:39:51.255Z,4.20
2022-09-28T06:45:02.307Z,4.20
2022-09-28T06:56:02.537Z,4.80
2022-09-28T07:01:20.233Z,5.30
2022-09-28T07:06:24.419Z,5.70
2022-09-28T07:11:30.555Z,5.10
2022-09-28T07:16:58.429Z,4.30
2022-09-28T07:22:05.203Z,4.90
2022-09-28T07:27:11.821Z,4.30
2022-09-28T07:32:18.648Z,4.00
2022-09-28T07:37:31.999Z,5.30
2022-09-28T07:42:42.192Z,5.90
2022-09-28T07:47:56.561Z,4.80
2022-09-28T07:53:03.961Z,5.40
2022-09-28T07:58:07.943Z,6.80
2022-09-28T08:03:10.777Z,7.20
2022-09-28T08:08:18.864Z,7.20
2022-09-28T08:13:26.186Z,6.20
2022-09-28T08:18:43.926Z,5.60
2022-09-28T08:23:54.647Z,5.60
2022-09-28T08:28:59.430Z,5.90
2022-09-28T08:34:03.142Z,5.80
2022-09-28T08:39:11.375Z,5.30
2022-09-28T08:44:25.305Z,6.30
2022-09-28T08:49:48.440Z,4.70
2022-09-28T08:55:11.298Z,6.60
2022-09-28T09:00:49.307Z,4.60
2022-09-28T09:06:38.690Z,6.40
2022-09-28T09:11:57.721Z,6.30
2022-09-28T09:17:41.653Z,6.00
2022-09-28T09:23:00.481Z,6.60
2022-09-28T09:28:09.084Z,6.20
2022-09-28T09:33:52.638Z,6.10
2022-09-28T09:39:07.413Z,6.80
2022-09-28T09:44:33.776Z,5.20
2022-09-28T09:50:06.814Z,5.70
2022-09-28T09:55:29.658Z,6.10
2022-09-28T10:05:54.693Z,5.00
2022-09-28T10:11:25.945Z,4.80
2022-09-28T10:16:33.085Z,5.20
2022-09-28T10:21:41.152Z,5.00
2022-09-28T10:26:50.383Z,5.80
2022-09-28T10:31:56.075Z,4.70
2022-09-28T10:37:06.758Z,4.20
2022-09-28T10:42:12.487Z,4.20
2022-09-28T10:47:19.799Z,4.10
2022-09-28T10:52:42.222Z,4.10
2022-09-28T10:57:44.959Z,4.30
2022-09-28T11:03:21.577Z,4.30
2022-09-28T11:08:40.100Z,4.10
2022-09-28T11:14:07.099Z,4.50
2022-09-28T11:19:22.897Z,3.40
2022-09-28T11:24:34.777Z,3.60
2022-09-28T11:29:46.576Z,4.20
2022-09-28T11:35:00.157Z,3.90
2022-09-28T11:40:29.697Z,3.80
2022-09-28T11:45:43.969Z,3.00
2022-09-28T11:50:54.540Z,3.40
2022-09-28T11:56:11.903Z,3.50
2022-09-28T12:01:31.697Z,4.10
2022-09-28T12:07:21.698Z,4.90
2022-09-28T12:12:49.363Z,3.50
2022-09-28T12:18:01.431Z,2.90
2022-09-28T12:23:11.468Z,2.60
2022-09-28T12:28:28.428Z,3.70
2022-09-28T12:33:32.829Z,3.90
2022-09-28T12:39:14.782Z,3.50
2022-09-28T12:44:20.186Z,3.90
2022-09-28T12:55:13.047Z,3.50
2022-09-28T13:00:32.621Z,3.40
2022-09-28T13:06:14.778Z,4.40
2022-09-28T13:11:47.351Z,4.30
2022-09-28T13:16:56.163Z,5.10
2022-09-28T13:22:21.760Z,3.90
2022-09-28T13:27:36.302Z,4.00
2022-09-28T13:32:39.910Z,3.80
2022-09-28T13:37:43.290Z,3.30
2022-09-28T13:42:46.244Z,3.20
2022-09-28T13:47:54.561Z,3.40
2022-09-28T13:53:22.204Z,3.20
2022-09-28T13:58:42.670Z,3.50
2022-09-28T14:04:11.789Z,3.40
2022-09-28T14:09:17.008Z,3.30
2022-09-28T14:14:54.365Z,3.30
2022-09-28T14:20:15.328Z,3.30
2022-09-28T14:25:25.103Z,3.30
2022-09-28T14:30:43.750Z,4.30
2022-09-28T14:36:04.858Z,4.90
2022-09-28T14:41:17.885Z,4.20
2022-09-28T14:46:21.003Z,3.70
2022-09-28T14:51:26.460Z,3.00
2022-09-28T14:56:33.313Z,3.40
2022-09-28T15:01:36.534Z,3.20
2022-09-28T15:06:50.154Z,3.50
2022-09-28T15:11:55.582Z,4.20
2022-09-28T15:17:02.972Z,6.50
2022-09-28T15:22:17.522Z,8.40
2022-09-28T15:27:20.257Z,5.60
2022-09-28T15:32:28.611Z,5.10
2022-09-28T15:37:40.314Z,5.40
2022-09-28T15:42:45.385Z,4.20
2022-09-28T15:47:48.571Z,4.40
2022-09-28T15:52:55.197Z,4.60
2022-09-28T15:58:21.226Z,4.80
2022-09-28T16:08:33.073Z,4.40
2022-09-28T16:13:37.023Z,4.80
2022-09-28T16:18:40.502Z,4.90
2022-09-28T16:23:55.907Z,7.60
2022-09-28T16:28:59.067Z,10.00
2022-09-28T16:34:27.438Z,12.80
2022-09-28T16:39:30.126Z,14.70
2022-09-28T16:44:35.015Z,23.40
2022-09-28T16:49:39.906Z,19.60
2022-09-28T16:55:01.279Z,15.60
2022-09-28T17:00:04.272Z,18.00
2022-09-28T17:05:07.501Z,15.60
2022-09-28T17:11:12.905Z,16.80
2022-09-28T17:21:43.746Z,12.50
2022-09-28T17:26:49.259Z,8.60
2022-09-28T17:31:52.161Z,8.70
2022-09-28T17:36:56.098Z,6.60
2022-09-28T17:41:58.811Z,7.10
2022-09-28T17:47:02.111Z,8.10
2022-09-28T17:52:05.705Z,7.70
2022-09-28T17:57:10.342Z,8.80
2022-09-28T18:02:12.990Z,7.80
2022-09-28T18:07:15.893Z,7.00
2022-09-28T18:12:18.610Z,6.40
2022-09-28T18:17:22.226Z,5.50
2022-09-28T18:22:24.900Z,6.80
2022-09-28T18:27:30.390Z,6.30
2022-09-28T18:32:37.763Z,7.20
2022-09-28T18:37:40.941Z,6.00
2022-09-28T18:42:43.805Z,5.40
2022-09-28T18:47:47.037Z,6.00
2022-09-28T18:52:49.745Z,6.00
2022-09-28T18:57:52.950Z,5.90
2022-09-28T19:02:55.743Z,6.30
2022-09-28T19:07:58.463Z,6.30
2022-09-28T19:13:01.226Z,6.10
2022-09-28T19:18:04.387Z,6.30
2022-09-28T19:23:07.176Z,5.90
2022-09-28T19:28:09.864Z,6.20
2022-09-28T19:33:12.636Z,6.70
2022-09-28T19:38:15.311Z,8.00
2022-09-28T19:43:19.937Z,7.70
2022-09-28T19:48:27.301Z,9.60
2022-09-28T19:53:32.618Z,11.80
2022-09-28T19:58:36.851Z,9.80
2022-09-28T20:03:39.646Z,10.20
2022-09-28T20:08:44.790Z,8.00
2022-09-28T20:13:49.167Z,7.40
2022-09-28T20:18:56.062Z,6.00
2022-09-28T20:23:59.088Z,4.60
2022-09-28T20:29:01.811Z,5.30
2022-09-28T20:34:06.254Z,5.00
2022-09-28T20:39:10.781Z,4.50
2022-09-28T20:44:13.465Z,4.20
2022-09-28T20:49:16.126Z,3.70
2022-09-28T20:54:21.821Z,4.10
2022-09-28T20:59:27.086Z,3.90
2022-09-28T21:04:29.752Z,3.30
2022-09-28T21:09:32.570Z,3.20
2022-09-28T21:14:35.247Z,2.90
2022-09-28T21:19:37.921Z,4.70
2022-09-28T21:24:40.567Z,8.30
2022-09-28T21:29:43.238Z,10.10
2022-09-28T21:34:45.942Z,7.80
2022-09-28T21:39:48.602Z,8.60
2022-09-28T21:44:51.272Z,5.50
2022-09-28T21:49:53.912Z,5.80
2022-09-28T21:54:56.619Z,5.70
2022-09-28T21:59:59.307Z,4.70
2022-09-28T22:05:01.996Z,4.40
2022-09-28T22:10:07.070Z,3.90
2022-09-28T22:15:10.350Z,4.10
2022-09-28T22:20:13.523Z,4.70
2022-09-28T22:25:16.731Z,5.40
2022-09-28T22:30:19.410Z,5.90
2022-09-28T22:35:22.083Z,5.40
2022-09-28T22:40:25.537Z,5.30
2022-09-28T22:45:28.419Z,4.80
2022-09-28T22:50:31.665Z,4.90
2022-09-28T22:55:34.331Z,4.60
2022-09-28T23:00:37.459Z,4.60
2022-09-28T23:05:40.141Z,5.10
2022-09-28T23:10:42.834Z,4.70
2022-09-28T23:16:00.114Z,5.20
2022-09-28T23:21:06.068Z,4.60
2022-09-28T23:26:17.837Z,5.40
2022-09-28T23:31:23.892Z,5.10
2022-09-28T23:36:27.562Z,5.40
2022-09-28T23:41:30.499Z,5.10
2022-09-28T23:46:34.217Z,6.10
2022-09-28T23:51:36.910Z,8.10
2022-09-28T23:56:39.577Z,8.10
